createdAt,value
2022-12-24T00:00:20.652Z,0.70
2022-12-24T00:02:51.123Z,0.98
2022-12-24T00:05:22.202Z,0.57
2022-12-24T00:07:52.668Z,0.60
2022-12-24T00:10:24.608Z,0.80
2022-12-24T00:12:55.195Z,0.60
2022-12-24T00:15:25.633Z,0.52
2022-12-24T00:17:56.057Z,0.68
2022-12-24T00:20:26.687Z,0.52
2022-12-24T00:22:57.277Z,0.70
2022-12-24T00:25:36.742Z,0.47
2022-12-24T00:28:07.876Z,0.50
2022-12-24T00:30:39.974Z,0.60
2022-12-24T00:33:12.642Z,0.45
2022-12-24T00:35:43.341Z,0.70
2022-12-24T00:38:13.941Z,0.55
2022-12-24T00:40:44.390Z,0.70
2022-12-24T00:43:14.856Z,0.50
2022-12-24T00:45:45.571Z,0.50
2022-12-24T00:48:16.517Z,0.85
2022-12-24T00:50:46.807Z,0.60
2022-12-24T00:53:17.940Z,0.80
2022-12-24T00:55:49.201Z,0.50
2022-12-24T00:58:20.183Z,0.50
2022-12-24T01:00:50.926Z,0.60
2022-12-24T01:03:21.813Z,0.55
2022-12-24T01:05:53.740Z,0.50
2022-12-24T01:08:28.844Z,0.60
2022-12-24T01:10:59.415Z,0.40
2022-12-24T01:13:30.048Z,0.52
2022-12-24T01:16:00.520Z,0.77
2022-12-24T01:18:31.603Z,0.50
2022-12-24T01:21:05.177Z,0.30
2022-12-24T01:23:36.225Z,0.30
2022-12-24T01:26:07.907Z,0.40
2022-12-24T01:28:38.397Z,0.40
2022-12-24T01:31:18.020Z,0.50
2022-12-24T01:33:51.299Z,0.52
2022-12-24T01:36:21.600Z,0.52
2022-12-24T01:38:52.321Z,0.50
2022-12-24T01:41:43.706Z,0.77
2022-12-24T01:44:35.157Z,0.40
2022-12-24T01:47:18.687Z,0.50
2022-12-24T01:49:56.337Z,0.40
2022-12-24T01:52:37.663Z,0.30
2022-12-24T01:55:16.622Z,0.55
2022-12-24T01:57:55.049Z,0.88
2022-12-24T02:00:26.139Z,0.60
2022-12-24T02:02:57.704Z,0.38
2022-12-24T02:05:52.698Z,0.30
2022-12-24T02:08:42.036Z,0.47
2022-12-24T02:11:21.152Z,0.70
2022-12-24T02:13:57.627Z,0.50
2022-12-24T02:16:31.023Z,0.50
2022-12-24T02:19:04.262Z,0.50
2022-12-24T02:22:29.533Z,0.52
2022-12-24T02:25:23.271Z,0.63
2022-12-24T02:28:03.477Z,0.30
2022-12-24T02:31:12.086Z,0.40
2022-12-24T02:34:09.239Z,0.50
2022-12-24T02:37:02.417Z,0.40
2022-12-24T02:40:17.065Z,0.50
2022-12-24T02:42:57.359Z,0.77
2022-12-24T02:45:35.926Z,0.45
2022-12-24T02:48:07.066Z,0.40
2022-12-24T02:50:38.681Z,0.90
2022-12-24T02:53:12.776Z,0.55
2022-12-24T02:55:51.717Z,0.93
2022-12-24T02:58:40.780Z,0.30
2022-12-24T03:01:29.919Z,0.30
2022-12-24T03:04:44.673Z,0.50
2022-12-24T03:07:44.590Z,0.40
2022-12-24T03:10:34.488Z,0.40
2022-12-24T03:13:19.411Z,0.60
2022-12-24T03:15:51.798Z,0.60
2022-12-24T03:18:28.901Z,0.50
2022-12-24T03:21:13.551Z,0.50
2022-12-24T03:23:44.910Z,0.43
2022-12-24T03:26:18.396Z,0.70
2022-12-24T03:28:49.773Z,0.60
2022-12-24T03:31:21.142Z,0.77
2022-12-24T03:33:52.939Z,0.40
2022-12-24T03:36:23.532Z,0.50
2022-12-24T03:38:54.027Z,0.40
2022-12-24T03:41:24.285Z,0.30
2022-12-24T03:43:54.615Z,0.50
2022-12-24T03:46:25.069Z,0.40
2022-12-24T03:48:55.464Z,0.30
2022-12-24T03:51:27.829Z,0.50
2022-12-24T03:54:00.156Z,0.47
2022-12-24T03:56:31.265Z,0.43
2022-12-24T03:59:01.557Z,0.50
2022-12-24T04:01:32.307Z,0.63
2022-12-24T04:04:02.638Z,0.50
2022-12-24T04:06:33.960Z,1.70
2022-12-24T04:09:22.803Z,0.63
2022-12-24T04:12:12.229Z,0.70
2022-12-24T04:15:01.042Z,0.50
2022-12-24T04:17:31.343Z,0.60
2022-12-24T04:20:01.571Z,1.15
2022-12-24T04:22:32.063Z,0.55
2022-12-24T04:25:02.445Z,0.57
2022-12-24T04:27:33.004Z,0.60
2022-12-24T04:30:03.233Z,0.50
2022-12-24T04:32:33.679Z,0.47
2022-12-24T04:35:04.068Z,0.70
2022-12-24T04:37:35.992Z,0.63
2022-12-24T04:40:06.550Z,0.47
2022-12-24T04:42:36.897Z,0.60
2022-12-24T04:45:07.870Z,0.60
2022-12-24T04:47:38.748Z,0.47
2022-12-24T04:50:09.916Z,0.60
2022-12-24T04:52:40.662Z,0.43
2022-12-24T04:55:11.387Z,0.50
2022-12-24T04:57:41.862Z,0.50
2022-12-24T05:00:12.967Z,0.80
2022-12-24T05:02:43.600Z,0.65
2022-12-24T05:05:14.257Z,0.43
2022-12-24T05:07:44.804Z,0.70
2022-12-24T05:10:15.337Z,0.98
2022-12-24T05:13:04.338Z,0.40
2022-12-24T05:15:53.267Z,0.77
2022-12-24T05:18:24.402Z,0.50
2022-12-24T05:20:55.062Z,0.50
2022-12-24T05:23:45.980Z,0.70
2022-12-24T05:26:24.387Z,0.50
2022-12-24T05:29:01.081Z,0.50
2022-12-24T05:31:35.764Z,0.50
2022-12-24T05:34:06.607Z,0.57
2022-12-24T05:36:38.056Z,0.32
2022-12-24T05:39:15.130Z,0.60
2022-12-24T05:41:49.729Z,0.45
2022-12-24T05:44:21.775Z,0.85
2022-12-24T05:46:52.803Z,0.57
2022-12-24T05:49:23.061Z,0.70
2022-12-24T05:51:53.319Z,0.70
2022-12-24T05:54:24.032Z,0.40
2022-12-24T05:56:54.550Z,0.40
2022-12-24T05:59:24.897Z,0.45
2022-12-24T06:01:55.147Z,0.40
2022-12-24T06:04:28.926Z,0.50
2022-12-24T06:06:59.569Z,0.52
2022-12-24T06:09:30.672Z,0.60
2022-12-24T06:12:00.904Z,0.40
2022-12-24T06:14:31.204Z,0.50
2022-12-24T06:17:01.664Z,0.45
2022-12-24T06:19:31.917Z,0.50
2022-12-24T06:22:02.408Z,0.50
2022-12-24T06:24:33.144Z,0.60
2022-12-24T06:27:04.796Z,0.40
2022-12-24T06:29:35.734Z,0.30
2022-12-24T06:32:06.147Z,0.40
2022-12-24T06:34:36.452Z,0.40
2022-12-24T06:37:07.350Z,0.70
2022-12-24T06:39:37.918Z,0.40
2022-12-24T06:42:27.226Z,0.52
2022-12-24T06:45:16.020Z,0.30
2022-12-24T06:47:46.672Z,0.50
2022-12-24T06:50:17.252Z,0.73
2022-12-24T06:52:47.716Z,0.40
2022-12-24T06:55:18.142Z,0.77
2022-12-24T06:57:48.601Z,0.40
2022-12-24T07:00:19.358Z,0.32
2022-12-24T07:02:49.926Z,0.50
2022-12-24T07:05:20.373Z,0.85
2022-12-24T07:07:50.913Z,0.40
2022-12-24T07:10:21.968Z,0.60
2022-12-24T07:12:52.944Z,0.50
2022-12-24T07:15:23.733Z,0.50
2022-12-24T07:17:54.547Z,0.40
2022-12-24T07:20:25.301Z,0.43
2022-12-24T07:22:57.162Z,0.50
2022-12-24T07:25:28.050Z,0.38
2022-12-24T07:27:58.979Z,0.50
2022-12-24T07:30:29.836Z,0.65
2022-12-24T07:33:00.301Z,0.50
2022-12-24T07:35:30.998Z,0.60
2022-12-24T07:38:01.791Z,0.50
2022-12-24T07:40:32.023Z,1.00
2022-12-24T07:43:03.313Z,0.70
2022-12-24T07:45:34.043Z,0.60
2022-12-24T07:48:04.460Z,0.77
2022-12-24T07:50:34.775Z,0.60
2022-12-24T07:53:05.084Z,0.50
2022-12-24T07:55:35.356Z,0.60
2022-12-24T07:58:05.605Z,0.60
2022-12-24T08:00:36.650Z,0.40
2022-12-24T08:03:07.639Z,1.60
2022-12-24T08:05:39.595Z,0.70
2022-12-24T08:08:10.057Z,0.57
2022-12-24T08:11:05.369Z,0.73
2022-12-24T08:13:36.482Z,0.77
2022-12-24T08:16:07.633Z,0.77
2022-12-24T08:18:38.003Z,0.60
2022-12-24T08:21:12.420Z,0.60
2022-12-24T08:23:42.764Z,0.60
2022-12-24T08:26:14.696Z,0.50
2022-12-24T08:28:45.105Z,0.40
2022-12-24T08:31:17.857Z,0.60
2022-12-24T08:33:48.140Z,0.60
2022-12-24T08:36:18.536Z,0.47
2022-12-24T08:38:50.034Z,0.63
2022-12-24T08:41:21.050Z,0.63
2022-12-24T08:43:51.420Z,0.52
2022-12-24T08:46:21.724Z,0.60
2022-12-24T08:48:52.231Z,0.60
2022-12-24T08:51:23.105Z,0.60
2022-12-24T08:53:53.493Z,0.60
2022-12-24T08:56:23.812Z,0.90
2022-12-24T08:58:54.525Z,0.60
2022-12-24T09:01:26.025Z,0.57
2022-12-24T09:03:56.461Z,0.50
2022-12-24T09:06:27.408Z,0.80
2022-12-24T09:08:58.579Z,0.90
2022-12-24T09:11:29.405Z,0.60
2022-12-24T09:14:00.230Z,0.80
2022-12-24T09:16:30.974Z,0.52
2022-12-24T09:19:01.383Z,0.70
2022-12-24T09:21:33.124Z,0.90
2022-12-24T09:24:06.362Z,0.77
2022-12-24T09:26:38.418Z,1.17
2022-12-24T09:29:09.381Z,0.75
2022-12-24T09:31:40.149Z,1.00
2022-12-24T09:34:10.863Z,1.27
2022-12-24T09:36:41.551Z,1.20
2022-12-24T09:39:11.971Z,1.30
2022-12-24T09:42:18.103Z,1.00
2022-12-24T09:45:22.503Z,1.75
2022-12-24T09:48:06.682Z,0.90
2022-12-24T09:50:51.544Z,1.40
2022-12-24T09:53:28.370Z,1.00
2022-12-24T09:56:04.351Z,0.90
2022-12-24T09:58:43.417Z,0.73
2022-12-24T10:01:18.105Z,0.80
2022-12-24T10:03:49.664Z,0.93
2022-12-24T10:06:29.620Z,0.80
2022-12-24T10:09:11.166Z,1.25
2022-12-24T10:12:10.368Z,0.90
2022-12-24T10:14:55.549Z,0.90
2022-12-24T10:18:04.054Z,1.65
2022-12-24T10:20:37.985Z,1.08
2022-12-24T10:23:26.220Z,0.90
2022-12-24T10:26:28.620Z,0.90
2022-12-24T10:29:08.974Z,1.38
2022-12-24T10:31:59.520Z,1.10
2022-12-24T10:34:38.308Z,1.45
2022-12-24T10:37:09.882Z,1.80
2022-12-24T10:39:41.126Z,1.90
2022-12-24T10:42:14.120Z,1.77
2022-12-24T10:44:44.656Z,1.92
2022-12-24T10:47:15.919Z,2.40
2022-12-24T10:50:07.491Z,2.38
2022-12-24T10:52:42.583Z,2.30
2022-12-24T10:55:26.280Z,2.20
2022-12-24T10:58:08.852Z,2.35
2022-12-24T11:00:42.238Z,2.42
2022-12-24T11:03:16.653Z,2.30
2022-12-24T11:05:47.698Z,2.65
2022-12-24T11:08:32.628Z,2.63
2022-12-24T11:11:09.111Z,2.40
2022-12-24T11:13:54.535Z,2.33
2022-12-24T11:16:43.013Z,2.28
2022-12-24T11:19:22.434Z,2.92
2022-12-24T11:22:04.032Z,2.22
2022-12-24T11:24:37.680Z,2.35
2022-12-24T11:27:33.571Z,2.33
2022-12-24T11:30:23.866Z,2.70
2022-12-24T11:33:23.620Z,2.28
2022-12-24T11:36:02.811Z,2.75
2022-12-24T11:38:37.033Z,2.60
2022-12-24T11:41:14.680Z,2.63
2022-12-24T11:43:51.186Z,2.35
2022-12-24T11:46:38.184Z,2.55
2022-12-24T11:52:13.228Z,2.47
2022-12-24T11:55:17.811Z,2.33
2022-12-24T11:58:14.524Z,2.60
2022-12-24T12:00:47.276Z,2.30
2022-12-24T12:03:46.923Z,2.38
2022-12-24T12:06:41.376Z,2.30
2022-12-24T12:09:28.160Z,2.35
2022-12-24T12:12:09.112Z,2.55
2022-12-24T12:15:03.927Z,2.53
2022-12-24T12:17:40.637Z,2.55
2022-12-24T12:20:33.938Z,3.58
2022-12-24T12:23:14.620Z,2.70
2022-12-24T12:26:23.160Z,2.97
2022-12-24T12:29:23.838Z,2.53
2022-12-24T12:32:14.398Z,2.33
2022-12-24T12:35:05.727Z,2.50
2022-12-24T12:37:46.102Z,2.88
2022-12-24T12:40:18.905Z,2.60
2022-12-24T12:43:39.529Z,2.75
2022-12-24T12:46:23.431Z,3.60
2022-12-24T12:49:02.299Z,2.45
2022-12-24T12:52:05.103Z,2.90
2022-12-24T12:54:44.172Z,2.33
2022-12-24T12:57:19.442Z,2.83
2022-12-24T12:59:55.740Z,3.20
2022-12-24T13:02:44.339Z,3.40
2022-12-24T13:05:29.591Z,2.80
2022-12-24T13:08:28.058Z,2.65
2022-12-24T13:11:36.682Z,2.60
2022-12-24T13:14:39.442Z,2.78
2022-12-24T13:17:42.890Z,3.17
2022-12-24T13:20:40.273Z,3.05
2022-12-24T13:23:26.403Z,2.50
2022-12-24T13:26:00.319Z,4.07
2022-12-24T13:28:31.620Z,3.53
2022-12-24T13:31:21.919Z,2.95
2022-12-24T13:34:03.391Z,2.85
2022-12-24T13:37:09.163Z,2.97
2022-12-24T13:40:10.486Z,3.53
2022-12-24T13:43:09.113Z,3.63
2022-12-24T13:45:42.959Z,3.45
2022-12-24T13:48:14.578Z,4.00
2022-12-24T13:50:56.594Z,3.15
2022-12-24T13:53:45.938Z,3.55
2022-12-24T13:56:18.737Z,2.63
2022-12-24T13:59:13.160Z,3.13
2022-12-24T14:01:47.616Z,3.10
2022-12-24T14:04:32.445Z,2.47
2022-12-24T14:07:06.135Z,3.17
2022-12-24T14:09:36.745Z,2.75
2022-12-24T14:12:06.973Z,2.92
2022-12-24T14:14:41.850Z,3.60
2022-12-24T14:17:33.298Z,2.80
2022-12-24T14:20:11.493Z,2.97
2022-12-24T14:22:48.137Z,2.85
2022-12-24T14:25:26.599Z,3.08
2022-12-24T14:28:18.956Z,2.78
2022-12-24T14:31:01.852Z,2.80
2022-12-24T14:33:33.991Z,3.00
2022-12-24T14:36:05.911Z,2.80
2022-12-24T14:38:37.206Z,3.22
2022-12-24T14:41:17.677Z,3.75
2022-12-24T14:44:21.657Z,3.15
2022-12-24T14:47:19.261Z,3.47
2022-12-24T14:50:18.043Z,3.00
2022-12-24T14:53:06.205Z,3.28
2022-12-24T14:55:45.069Z,3.17
2022-12-24T14:58:31.138Z,2.72
2022-12-24T15:01:21.880Z,3.45
2022-12-24T15:04:14.526Z,3.17
2022-12-24T15:06:55.253Z,3.20
2022-12-24T15:09:28.510Z,2.97
2022-12-24T15:12:02.873Z,3.00
2022-12-24T15:14:37.140Z,3.00
2022-12-24T15:17:10.776Z,2.92
2022-12-24T15:19:45.135Z,3.13
2022-12-24T15:22:30.504Z,3.67
2022-12-24T15:25:02.362Z,3.20
2022-12-24T15:27:41.398Z,2.80
2022-12-24T15:30:19.614Z,2.90
2022-12-24T15:32:52.439Z,3.20
2022-12-24T15:35:46.467Z,2.88
2022-12-24T15:38:42.314Z,3.65
2022-12-24T15:41:40.270Z,3.40
2022-12-24T15:44:12.072Z,2.63
2022-12-24T15:46:43.954Z,3.83
2022-12-24T15:49:19.585Z,2.70
2022-12-24T15:51:50.062Z,3.13
2022-12-24T15:54:24.567Z,3.28
2022-12-24T15:56:54.915Z,3.30
2022-12-24T15:59:34.184Z,3.90
2022-12-24T16:02:40.640Z,2.90
2022-12-24T16:05:34.877Z,2.53
2022-12-24T16:08:19.073Z,3.35
2022-12-24T16:10:55.929Z,3.75
2022-12-24T16:13:33.328Z,3.10
2022-12-24T16:16:13.273Z,3.72
2022-12-24T16:19:00.864Z,3.40
2022-12-24T16:21:45.339Z,2.95
2022-12-24T16:24:22.323Z,3.63
2022-12-24T16:26:54.389Z,3.67
2022-12-24T16:29:29.769Z,3.88
2022-12-24T16:32:02.077Z,3.30
2022-12-24T16:34:34.882Z,3.08
2022-12-24T16:37:06.116Z,3.47
2022-12-24T16:39:37.700Z,3.67
2022-12-24T16:42:26.068Z,3.28
2022-12-24T16:44:57.269Z,3.10
2022-12-24T16:47:37.166Z,2.80
2022-12-24T16:50:19.602Z,3.00
2022-12-24T16:52:50.239Z,3.20
2022-12-24T16:55:21.435Z,3.38
2022-12-24T16:57:54.099Z,3.05
2022-12-24T17:00:27.331Z,3.08
2022-12-24T17:02:58.111Z,3.25
2022-12-24T17:05:29.029Z,3.28
2022-12-24T17:08:05.638Z,3.67
2022-12-24T17:10:36.942Z,2.63
2022-12-24T17:13:08.128Z,3.15
2022-12-24T17:15:39.766Z,3.63
2022-12-24T17:18:10.042Z,3.45
2022-12-24T17:20:40.807Z,3.67
2022-12-24T17:23:11.513Z,3.00
2022-12-24T17:25:44.270Z,3.28
2022-12-24T17:28:14.897Z,3.42
2022-12-24T17:30:47.083Z,3.03
2022-12-24T17:33:17.444Z,3.28
2022-12-24T17:35:50.100Z,3.33
2022-12-24T17:38:29.297Z,3.70
2022-12-24T17:41:12.435Z,3.17
2022-12-24T17:43:43.616Z,2.90
2022-12-24T17:46:18.624Z,2.58
2022-12-24T17:48:50.591Z,3.30
2022-12-24T17:51:24.595Z,3.33
2022-12-24T17:53:55.408Z,3.13
2022-12-24T17:56:26.106Z,3.30
2022-12-24T17:58:56.991Z,3.50
2022-12-24T18:01:32.613Z,3.03
2022-12-24T18:04:06.026Z,3.20
2022-12-24T18:06:49.336Z,3.35
2022-12-24T18:09:21.749Z,3.35
2022-12-24T18:11:52.574Z,2.97
2022-12-24T18:14:24.118Z,2.85
2022-12-24T18:16:54.883Z,4.50
2022-12-24T18:19:25.538Z,3.58
2022-12-24T18:21:56.336Z,3.80
2022-12-24T18:24:27.353Z,3.38
2022-12-24T18:26:58.971Z,4.13
2022-12-24T18:29:30.014Z,4.15
2022-12-24T18:32:00.805Z,3.88
2022-12-24T18:34:31.433Z,3.78
2022-12-24T18:37:02.359Z,3.40
2022-12-24T18:39:33.180Z,3.17
2022-12-24T18:42:04.005Z,3.15
2022-12-24T18:44:35.591Z,3.30
2022-12-24T18:47:06.556Z,3.45
2022-12-24T18:49:39.861Z,2.70
2022-12-24T18:52:15.382Z,3.35
2022-12-24T18:54:54.639Z,3.03
2022-12-24T18:57:25.393Z,3.53
2022-12-24T18:59:56.116Z,2.80
2022-12-24T19:02:27.254Z,3.00
2022-12-24T19:04:57.664Z,3.30
2022-12-24T19:07:29.329Z,3.85
2022-12-24T19:09:59.964Z,3.83
2022-12-24T19:12:30.719Z,3.13
2022-12-24T19:15:03.392Z,3.40
2022-12-24T19:17:34.305Z,3.00
2022-12-24T19:20:05.287Z,2.83
2022-12-24T19:22:35.775Z,3.63
2022-12-24T19:25:08.625Z,2.80
2022-12-24T19:27:41.247Z,3.67
2022-12-24T19:30:12.581Z,3.30
2022-12-24T19:32:43.434Z,3.10
2022-12-24T19:35:14.146Z,3.45
2022-12-24T19:37:45.007Z,3.45
2022-12-24T19:40:15.471Z,3.20
2022-12-24T19:42:47.135Z,3.60
2022-12-24T19:45:17.473Z,4.18
2022-12-24T19:47:49.541Z,3.28
2022-12-24T19:50:20.893Z,3.83
2022-12-24T19:52:51.392Z,3.47
2022-12-24T19:55:21.678Z,3.85
2022-12-24T19:57:54.434Z,3.47
2022-12-24T20:00:25.137Z,3.88
2022-12-24T20:02:56.512Z,3.85
2022-12-24T20:05:27.248Z,3.88
2022-12-24T20:07:57.719Z,3.72
2022-12-24T20:10:29.211Z,4.38
2022-12-24T20:13:05.774Z,3.42
2022-12-24T20:15:45.184Z,3.45
2022-12-24T20:18:17.270Z,4.07
2022-12-24T20:20:47.473Z,3.90
2022-12-24T20:23:17.903Z,4.05
2022-12-24T20:25:48.556Z,4.03
2022-12-24T20:28:19.406Z,3.85
2022-12-24T20:30:50.080Z,4.78
2022-12-24T20:33:21.130Z,4.40
2022-12-24T20:35:51.677Z,4.60
2022-12-24T20:38:31.473Z,3.72
2022-12-24T20:41:02.208Z,4.10
2022-12-24T20:43:37.249Z,4.00
2022-12-24T20:46:10.835Z,4.00
2022-12-24T20:48:43.261Z,3.90
2022-12-24T20:51:23.889Z,3.83
2022-12-24T20:53:57.963Z,3.78
2022-12-24T20:56:29.451Z,3.78
2022-12-24T20:59:00.865Z,3.95
2022-12-24T21:01:31.792Z,3.95
2022-12-24T21:04:06.602Z,3.78
2022-12-24T21:06:38.104Z,3.78
2022-12-24T21:09:09.104Z,3.38
2022-12-24T21:11:52.269Z,4.13
2022-12-24T21:14:29.127Z,3.38
2022-12-24T21:16:59.545Z,3.67
2022-12-24T21:19:30.199Z,3.70
2022-12-24T21:22:00.949Z,4.22
2022-12-24T21:24:31.838Z,3.72
2022-12-24T21:27:02.075Z,3.10
2022-12-24T21:29:33.437Z,3.20
2022-12-24T21:32:04.180Z,3.75
2022-12-24T21:34:34.946Z,3.03
2022-12-24T21:37:05.683Z,3.47
2022-12-24T21:39:37.609Z,3.40
2022-12-24T21:42:08.354Z,2.78
2022-12-24T21:44:39.547Z,3.47
2022-12-24T21:47:09.905Z,2.97
2022-12-24T21:50:00.098Z,3.53
2022-12-24T21:52:30.811Z,2.50
2022-12-24T21:55:01.567Z,2.38
2022-12-24T21:57:49.598Z,2.22
2022-12-24T22:00:32.717Z,2.25
2022-12-24T22:03:03.114Z,2.47
2022-12-24T22:05:36.022Z,2.38
2022-12-24T22:08:31.172Z,2.30
2022-12-24T22:11:24.083Z,1.83
2022-12-24T22:13:54.345Z,2.70
2022-12-24T22:16:25.644Z,2.00
2022-12-24T22:18:57.239Z,1.98
2022-12-24T22:21:27.587Z,1.83
2022-12-24T22:23:58.254Z,2.33
2022-12-24T22:26:29.046Z,2.13
2022-12-24T22:28:59.715Z,1.60
2022-12-24T22:31:30.259Z,1.80
2022-12-24T22:34:01.309Z,1.50
2022-12-24T22:36:32.422Z,1.63
2022-12-24T22:39:02.746Z,2.65
2022-12-24T22:41:33.175Z,1.90
2022-12-24T22:44:03.425Z,1.92
2022-12-24T22:46:33.996Z,1.90
2022-12-24T22:49:04.237Z,1.80
2022-12-24T22:51:35.074Z,1.63
2022-12-24T22:54:06.217Z,1.70
2022-12-24T22:56:40.959Z,2.00
2022-12-24T22:59:15.921Z,1.80
2022-12-24T23:01:49.394Z,1.77
2022-12-24T23:04:20.609Z,1.80
2022-12-24T23:06:51.487Z,2.40
2022-12-24T23:09:21.852Z,1.80
2022-12-24T23:11:52.085Z,2.00
2022-12-24T23:14:41.996Z,1.63
2022-12-24T23:17:13.192Z,1.60
2022-12-24T23:19:44.084Z,1.58
2022-12-24T23:22:14.773Z,1.42
2022-12-24T23:24:45.123Z,1.55
2022-12-24T23:27:15.872Z,1.25
2022-12-24T23:29:46.157Z,1.40
2022-12-24T23:32:16.618Z,1.42
2022-12-24T23:34:46.985Z,1.80
2022-12-24T23:37:17.271Z,1.33
2022-12-24T23:39:48.317Z,1.25
2022-12-24T23:42:20.894Z,1.13
2022-12-24T23:44:53.435Z,1.92
2022-12-24T23:47:27.964Z,1.55
2022-12-24T23:49:58.732Z,1.40
2022-12-24T23:52:29.750Z,1.52
2022-12-24T23:55:05.279Z,1.00
2022-12-24T23:57:35.971Z,1.00
